Time;durP1;ratioP1;P1;durP2;ratioP2;P2;SDS_P1;SDS_P2;PMS_P1;PMS_P2;Temp;Humidity;BMP_temperature;BMP_pressure;BME280_temperature;BME280_humidity;BME280_pressure;Samples;Min_cycle;Max_cycle;Signal;HPM_P1;HPM_P2
2021/11/01 00:04:21;;;;;;;7.45;4.40;;;12.80;99.90;;;;;;10339707;28;20306;-58
2021/11/01 00:09:27;;;;;;;9.38;4.07;;;12.80;99.90;;;;;;10338132;28;20046;-58
2021/11/01 00:14:30;;;;;;;6.95;2.97;;;12.90;99.90;;;;;;10346950;28;20139;-59
2021/11/01 00:19:31;;;;;;;7.70;4.22;;;13.00;99.90;;;;;;10343829;28;20547;-59
2021/11/01 00:24:33;;;;;;;7.53;4.25;;;13.00;99.90;;;;;;10347201;28;20533;-58
2021/11/01 00:29:35;;;;;;;13.98;5.13;;;13.00;99.90;;;;;;10347739;28;20062;-59
2021/11/01 00:34:37;;;;;;;10.50;5.47;;;13.10;99.90;;;;;;10343104;28;20054;-59
2021/11/01 00:39:39;;;;;;;8.95;5.55;;;13.20;99.90;;;;;;10343452;28;20097;-59
2021/11/01 00:44:40;;;;;;;9.95;5.18;;;13.20;99.90;;;;;;10339477;28;20062;-59
2021/11/01 00:49:43;;;;;;;9.07;5.70;;;13.30;99.90;;;;;;10342522;28;20049;-59
2021/11/01 00:54:45;;;;;;;8.68;5.10;;;13.30;99.90;;;;;;10338263;28;20050;-59
2021/11/01 00:59:46;;;;;;;7.50;4.93;;;13.30;99.90;;;;;;10339271;28;20138;-59
2021/11/01 01:04:48;;;;;;;5.03;3.40;;;13.30;99.90;;;;;;10339650;28;20152;-60
2021/11/01 01:09:50;;;;;;;1.33;0.40;;;13.30;99.90;;;;;;10340894;28;20081;-58
2021/11/01 01:14:57;;;;;;;0.80;0.10;;;13.30;99.90;;;;;;10337631;28;20393;-59
2021/11/01 01:20:05;;;;;;;2.58;0.10;;;13.30;99.90;;;;;;10337748;28;20107;-58
2021/11/01 01:25:24;;;;;;;0.28;0.17;;;13.20;99.90;;;;;;10339942;28;20065;-59
2021/11/01 01:30:28;;;;;;;1.25;0.10;;;13.10;99.90;;;;;;10341115;28;20112;-59
2021/11/01 01:35:31;;;;;;;1.17;0.00;;;13.00;99.90;;;;;;10336761;28;20112;-59
2021/11/01 01:40:34;;;;;;;4.95;0.10;;;12.90;99.90;;;;;;10341091;28;20046;-59
2021/11/01 01:45:36;;;;;;;3.70;0.10;;;12.70;99.90;;;;;;10340834;28;20050;-59
2021/11/01 01:50:38;;;;;;;0.93;0.10;;;12.50;99.90;;;;;;10339502;28;20077;-59
2021/11/01 01:55:39;;;;;;;2.35;0.13;;;12.30;99.90;;;;;;10342423;28;20085;-59
2021/11/01 02:00:58;;;;;;;1.20;0.20;;;12.10;99.90;;;;;;10338449;28;20077;-61
2021/11/01 02:06:08;;;;;;;4.38;0.10;;;12.00;99.90;;;;;;10339328;28;20069;-60
2021/11/01 02:11:15;;;;;;;3.15;0.20;;;11.80;99.90;;;;;;10337270;28;20112;-60
2021/11/01 02:16:17;;;;;;;2.35;0.08;;;11.60;99.90;;;;;;10340636;28;20131;-60
2021/11/01 02:21:36;;;;;;;0.43;0.10;;;11.40;99.90;;;;;;10348446;28;20161;-61
2021/11/01 02:26:39;;;;;;;1.27;0.10;;;11.30;99.90;;;;;;10348217;28;20128;-61
2021/11/01 02:31:41;;;;;;;3.15;0.40;;;11.30;99.90;;;;;;10365022;28;20096;-61
2021/11/01 02:36:45;;;;;;;1.38;0.13;;;11.20;99.90;;;;;;10345010;28;20551;-61
2021/11/01 02:41:48;;;;;;;2.85;0.40;;;11.10;99.90;;;;;;10349712;28;20083;-61
2021/11/01 02:46:49;;;;;;;7.88;0.10;;;11.10;99.90;;;;;;10342797;28;20066;-61
2021/11/01 02:51:51;;;;;;;3.47;0.10;;;11.10;99.90;;;;;;10346389;28;20093;-60
2021/11/01 02:56:53;;;;;;;2.72;0.10;;;11.10;99.90;;;;;;10348767;28;20046;-60
2021/11/01 03:01:58;;;;;;;2.83;0.10;;;11.00;99.90;;;;;;10341834;28;20112;-61
2021/11/01 03:07:01;;;;;;;5.47;0.20;;;11.10;99.90;;;;;;10348768;28;20133;-61
2021/11/01 03:12:07;;;;;;;1.90;0.20;;;11.10;99.90;;;;;;10345132;28;20042;-61
2021/11/01 03:17:13;;;;;;;4.68;0.20;;;11.00;99.90;;;;;;10347474;28;20463;-61
2021/11/01 03:22:17;;;;;;;0.50;0.15;;;11.00;99.90;;;;;;10342157;28;20104;-61
2021/11/01 03:27:20;;;;;;;2.05;0.43;;;11.00;99.90;;;;;;10359866;28;20104;-61
2021/11/01 03:32:24;;;;;;;7.85;0.20;;;11.00;99.90;;;;;;10347467;28;20503;-61
2021/11/01 03:37:27;;;;;;;1.65;0.10;;;10.90;99.90;;;;;;10341082;28;20124;-61
2021/11/01 03:42:29;;;;;;;2.28;0.20;;;10.70;99.90;;;;;;10349535;28;20134;-62
2021/11/01 03:47:36;;;;;;;4.07;0.20;;;10.70;99.90;;;;;;10342495;28;20062;-61
2021/11/01 03:52:39;;;;;;;4.47;0.20;;;10.70;99.90;;;;;;10343646;28;20046;-61
2021/11/01 03:57:40;;;;;;;3.08;0.20;;;10.60;99.90;;;;;;10345141;28;20085;-61
2021/11/01 04:02:46;;;;;;;9.82;1.17;;;10.60;99.90;;;;;;10342249;28;20054;-61
2021/11/01 04:07:49;;;;;;;1.33;0.17;;;10.70;99.90;;;;;;10340612;28;20061;-61
2021/11/01 04:12:50;;;;;;;2.58;0.30;;;10.70;99.90;;;;;;10340618;28;20502;-61
2021/11/01 04:18:24;;;;;;;1.85;0.30;;;10.70;99.90;;;;;;10341649;28;20050;-60
2021/11/01 04:23:15;;;;;;;3.15;0.30;;;10.60;99.90;;;;;;10343294;28;20452;-61
2021/11/01 04:28:17;;;;;;;3.13;0.20;;;10.70;99.90;;;;;;10341258;28;20662;-60
2021/11/01 04:33:22;;;;;;;5.47;0.85;;;10.70;99.90;;;;;;10345002;28;20108;-60
2021/11/01 04:54:07;;;;;;;1.85;0.20;;;10.60;99.90;;;;;;10340465;28;20057;-60
2021/11/01 04:59:09;;;;;;;2.85;0.22;;;10.60;99.90;;;;;;10340831;28;20058;-60
2021/11/01 05:04:15;;;;;;;8.25;0.40;;;10.70;99.90;;;;;;10340555;28;20099;-60
2021/11/01 05:09:29;;;;;;;4.78;0.47;;;10.60;99.90;;;;;;10340127;28;20143;-59
2021/11/01 05:25:10;;;;;;;2.15;0.30;;;10.80;99.90;;;;;;10321298;28;20062;-61
2021/11/01 05:30:17;;;;;;;9.13;0.50;;;10.80;99.90;;;;;;10340452;28;20074;-60
2021/11/01 05:35:20;;;;;;;2.88;0.50;;;10.90;99.90;;;;;;10350349;28;20757;-60
2021/11/01 05:40:21;;;;;;;3.70;0.60;;;10.90;99.90;;;;;;10340655;28;20527;-59
2021/11/01 05:45:24;;;;;;;3.15;1.02;;;10.90;99.90;;;;;;10341109;28;20109;-59
2021/11/01 05:50:31;;;;;;;4.20;0.60;;;10.90;99.90;;;;;;10337321;28;20231;-59
2021/11/01 06:16:28;;;;;;;2.72;1.05;;;11.00;99.90;;;;;;10342407;28;19926;-65
2021/11/01 06:21:30;;;;;;;6.47;1.05;;;11.10;99.90;;;;;;10339613;28;20581;-64
2021/11/01 06:26:35;;;;;;;2.03;0.63;;;11.10;99.90;;;;;;10338092;28;20095;-59
2021/11/01 06:31:44;;;;;;;2.63;0.60;;;11.00;99.90;;;;;;10339144;28;20120;-60
2021/11/01 06:58:24;;;;;;;2.80;0.40;;;11.10;99.90;;;;;;10334992;28;20042;-64
2021/11/01 07:14:31;;;;;;;4.05;1.15;;;11.10;99.90;;;;;;10344637;28;20133;-64
2021/11/01 08:23:22;;;;;;;3.65;1.15;;;11.30;99.90;;;;;;10342273;28;20209;-64
2021/11/01 08:28:49;;;;;;;3.40;0.85;;;11.40;99.90;;;;;;10341256;28;20058;-64
2021/11/01 08:34:35;;;;;;;7.75;0.65;;;11.40;99.90;;;;;;10338036;28;20112;-64
2021/11/01 09:11:27;;;;;;;6.15;0.50;;;11.60;99.90;;;;;;10342177;28;20412;-63
2021/11/01 09:27:02;;;;;;;0.95;0.40;;;11.90;99.90;;;;;;10343912;28;20112;-63
2021/11/01 09:37:55;;;;;;;4.32;0.60;;;11.90;99.90;;;;;;10339112;28;20064;-63
2021/11/01 09:42:54;;;;;;;2.47;0.73;;;12.00;99.90;;;;;;10339151;28;20112;-63
2021/11/01 09:47:56;;;;;;;2.30;0.60;;;12.00;99.90;;;;;;10342183;28;20049;-63
2021/11/01 09:53:06;;;;;;;1.48;0.30;;;11.90;99.90;;;;;;10339091;28;20260;-63
2021/11/01 10:03:47;;;;;;;3.22;0.63;;;12.00;99.90;;;;;;10339292;28;20042;-63
2021/11/01 10:08:59;;;;;;;6.53;0.40;;;12.10;99.90;;;;;;10341073;28;20057;-63
2021/11/01 10:14:05;;;;;;;2.90;0.40;;;12.20;99.90;;;;;;10339631;28;20053;-63
2021/11/01 10:19:07;;;;;;;2.58;0.30;;;12.10;99.90;;;;;;10339162;28;20112;-63
2021/11/01 10:24:09;;;;;;;4.18;0.40;;;12.10;99.90;;;;;;10339374;28;20136;-62
2021/11/01 10:29:13;;;;;;;3.33;0.50;;;12.10;99.90;;;;;;10341043;28;20050;-63
2021/11/01 10:34:15;;;;;;;2.10;0.40;;;12.10;99.90;;;;;;10341038;28;20050;-63
2021/11/01 10:39:21;;;;;;;6.22;0.22;;;12.10;99.90;;;;;;10337865;28;20046;-63
2021/11/01 11:11:39;;;;;;;8.75;0.50;;;12.20;99.90;;;;;;10344650;28;20085;-64
2021/11/01 11:22:12;;;;;;;5.32;0.40;;;12.20;99.90;;;;;;10345481;28;20049;-63
2021/11/01 11:27:45;;;;;;;2.88;0.30;;;12.20;99.90;;;;;;10345536;28;20081;-63
2021/11/01 11:38:41;;;;;;;4.35;0.40;;;12.20;99.90;;;;;;10341930;28;20215;-63
2021/11/01 11:47:02;;;;;;;5.60;0.50;;;12.20;99.90;;;;;;10342496;28;20056;-63
2021/11/01 11:49:29;;;;;;;4.97;0.38;;;12.20;99.90;;;;;;10342535;28;20061;-63
2021/11/01 11:54:45;;;;;;;7.00;0.80;;;12.50;99.90;;;;;;10342575;28;20061;-63
2021/11/01 11:59:49;;;;;;;5.43;0.20;;;12.60;99.90;;;;;;10344733;28;20054;-63
2021/11/01 12:04:51;;;;;;;2.85;0.40;;;12.60;99.90;;;;;;10343030;28;20058;-63
2021/11/01 12:10:03;;;;;;;7.35;0.73;;;12.50;99.90;;;;;;10341517;28;20489;-64
2021/11/01 12:20:26;;;;;;;5.95;0.63;;;12.40;99.90;;;;;;10338101;28;20065;-63
2021/11/01 12:25:35;;;;;;;4.55;0.82;;;12.30;99.90;;;;;;10344706;28;20504;-63
2021/11/01 12:30:42;;;;;;;5.85;0.30;;;12.30;99.90;;;;;;10343218;28;20143;-63
2021/11/01 12:35:48;;;;;;;;;;;12.30;99.90;;;;;;10340782;28;20046;-62
2021/11/01 12:40:59;;;;;;;2.80;0.30;;;12.30;99.90;;;;;;10340072;28;19934;-64
2021/11/01 12:57:08;;;;;;;7.18;1.30;;;12.20;99.90;;;;;;10337652;28;20134;-63
2021/11/01 13:02:16;;;;;;;5.68;0.95;;;12.30;99.90;;;;;;10339510;28;20112;-64
2021/11/01 13:12:44;;;;;;;3.30;0.20;;;12.20;99.90;;;;;;10345911;28;20080;-64
2021/11/01 13:23:17;;;;;;;1.80;0.40;;;12.50;99.90;;;;;;10335161;28;20058;-64
2021/11/01 13:28:38;;;;;;;5.20;0.30;;;12.70;99.90;;;;;;10349603;28;20074;-64
2021/11/01 13:39:12;;;;;;;3.72;0.68;;;12.80;99.90;;;;;;10332542;28;20050;-64
2021/11/01 13:44:19;;;;;;;1.75;0.60;;;12.80;99.90;;;;;;10358918;28;20053;-64
2021/11/01 13:49:21;;;;;;;5.47;0.50;;;12.90;99.90;;;;;;10353689;28;20504;-64
2021/11/01 13:59:34;;;;;;;4.25;0.60;;;12.70;99.90;;;;;;10341173;28;20057;-64
2021/11/01 14:15:38;;;;;;;3.45;0.30;;;12.40;99.90;;;;;;10344064;28;20443;-63
2021/11/01 14:26:41;;;;;;;3.40;0.30;;;12.40;99.90;;;;;;10351037;28;20100;-63
2021/11/01 14:31:40;;;;;;;2.75;0.30;;;12.40;99.90;;;;;;10348924;28;20139;-63
2021/11/01 14:37:13;;;;;;;6.15;1.08;;;12.50;99.90;;;;;;10347422;28;20073;-62
2021/11/01 15:04:18;;;;;;;2.90;0.30;;;11.80;99.90;;;;;;10344113;28;20546;-61
2021/11/01 15:09:27;;;;;;;0.40;0.20;;;11.90;99.90;;;;;;10345019;28;20891;-61
2021/11/01 15:14:59;;;;;;;4.15;1.50;;;11.90;99.90;;;;;;10347628;28;20053;-61
2021/11/01 15:20:00;;;;;;;2.13;0.40;;;11.80;99.90;;;;;;10340829;28;20085;-62
2021/11/01 15:25:42;;;;;;;1.63;0.85;;;11.80;99.90;;;;;;10349136;28;20109;-62
2021/11/01 16:18:16;;;;;;;6.45;1.23;;;10.40;99.90;;;;;;10341481;28;20481;-63
2021/11/01 16:28:54;;;;;;;6.10;1.20;;;10.10;99.90;;;;;;10335132;28;20065;-62
2021/11/01 16:34:21;;;;;;;;;;;10.00;99.90;;;;;;10340798;28;20057;-59
2021/11/01 16:39:20;;;;;;;5.68;1.15;;;9.90;99.90;;;;;;10342009;28;20050;-58
2021/11/01 16:44:32;;;;;;;9.73;1.55;;;9.70;99.90;;;;;;10341746;28;20112;-58
2021/11/01 16:49:34;;;;;;;4.63;0.70;;;9.50;99.90;;;;;;10338273;28;20046;-58
2021/11/01 16:54:37;;;;;;;7.82;1.10;;;9.40;99.90;;;;;;10339912;28;20072;-57
2021/11/01 17:26:25;;;;;;;4.10;0.93;;;8.90;99.90;;;;;;10339155;28;20058;-59
2021/11/01 17:34:45;;;;;;;6.03;1.40;;;8.70;99.90;;;;;;10339460;28;20088;-59
2021/11/01 18:52:03;;;;;;;3.28;1.35;;;7.70;99.90;;;;;;10332415;28;20882;-58
2021/11/01 18:56:44;;;;;;;4.72;1.10;;;7.60;99.90;;;;;;10333241;28;20140;-58
2021/11/01 19:01:51;;;;;;;10.27;2.50;;;7.60;99.90;;;;;;10346037;28;20073;-58
2021/11/01 19:07:04;;;;;;;11.47;2.53;;;7.50;99.90;;;;;;10342649;28;20141;-58
2021/11/01 20:06:07;;;;;;;13.15;4.40;;;6.60;99.90;;;;;;10340211;28;20045;-58
2021/11/01 21:26:04;;;;;;;7.95;2.70;;;7.70;99.90;;;;;;10329605;28;20541;-58
2021/11/01 21:31:06;;;;;;;4.75;2.15;;;7.70;99.90;;;;;;10324594;28;20100;-58
2021/11/01 21:36:11;;;;;;;8.57;3.65;;;7.70;99.90;;;;;;10341373;28;20073;-58
2021/11/01 21:41:13;;;;;;;10.05;4.18;;;7.80;99.90;;;;;;10320250;28;20240;-58
2021/11/01 21:46:16;;;;;;;10.43;4.68;;;7.90;99.90;;;;;;10341063;28;20096;-59
2021/11/01 21:51:19;;;;;;;16.65;5.10;;;8.00;99.90;;;;;;10341348;28;20054;-59
2021/11/01 21:56:20;;;;;;;12.25;5.00;;;8.00;99.90;;;;;;10336022;28;20073;-58
2021/11/01 22:09:38;;;;;;;12.50;4.65;;;8.10;99.90;;;;;;10338515;28;20061;-58
2021/11/01 22:23:12;;;;;;;10.02;4.78;;;8.50;99.90;;;;;;10298985;28;20054;-91
2021/11/01 22:33:53;;;;;;;8.63;3.83;;;8.50;99.90;;;;;;10331173;28;20480;-90
2021/11/01 22:39:18;;;;;;;10.68;3.60;;;8.50;99.90;;;;;;10328588;28;20049;-91
2021/11/01 23:01:12;;;;;;;19.50;6.68;;;8.70;99.90;;;;;;10165849;28;20060;-91
2021/11/01 23:33:28;;;;;;;15.70;5.93;;;8.50;99.90;;;;;;10264482;28;20132;-92
2021/11/01 23:38:32;;;;;;;9.20;4.93;;;8.40;99.90;;;;;;10115836;28;20605;-91
2021/11/01 23:43:37;;;;;;;10.30;4.18;;;8.40;99.90;;;;;;10269501;28;20185;-92
2021/11/01 23:48:39;;;;;;;10.48;4.47;;;8.30;99.90;;;;;;10309171;28;20572;-92
2021/11/01 23:53:48;;;;;;;9.98;3.28;;;8.20;99.90;;;;;;10064322;28;20072;-93
2021/11/01 23:59:28;;;;;;;14.45;4.47;;;8.00;99.90;;;;;;10191180;28;20104;-91
